createdAt,value
2023-03-21T00:00:42.782Z,101001.03
2023-03-21T00:03:09.529Z,100999.44
2023-03-21T00:05:43.101Z,101000.75
2023-03-21T00:08:09.874Z,100992.47
2023-03-21T00:10:43.464Z,100997.34
2023-03-21T00:13:15.055Z,100992.38
2023-03-21T00:16:08.333Z,100987.91
2023-03-21T00:18:42.594Z,100988.63
2023-03-21T00:23:59.726Z,100990.34
2023-03-21T00:26:26.928Z,100981.63
2023-03-21T00:28:53.458Z,100982.34
2023-03-21T00:31:20.945Z,100976.16
2023-03-21T00:33:49.582Z,100980.13
2023-03-21T00:36:16.426Z,100981.50
2023-03-21T00:38:43.411Z,100971.44
2023-03-21T00:41:23.409Z,100978.31
2023-03-21T00:43:58.242Z,100970.50
2023-03-21T00:46:27.627Z,100971.13
2023-03-21T00:48:56.967Z,100971.34
2023-03-21T00:51:27.090Z,100962.47
2023-03-21T00:53:56.075Z,100952.00
2023-03-21T00:56:22.878Z,100948.75
2023-03-21T00:58:49.806Z,100963.75
2023-03-21T01:01:16.874Z,100948.03
2023-03-21T01:03:50.882Z,100950.56
2023-03-21T01:06:19.764Z,100954.97
2023-03-21T01:08:52.716Z,100950.53
2023-03-21T01:11:24.703Z,100945.06
2023-03-21T01:13:57.795Z,100950.75
2023-03-21T01:16:28.886Z,100947.63
2023-03-21T01:18:56.223Z,100932.38
2023-03-21T01:21:23.173Z,100940.09
2023-03-21T01:23:49.747Z,100936.00
2023-03-21T01:26:16.427Z,100946.31
2023-03-21T01:28:45.376Z,100936.91
2023-03-21T01:31:15.765Z,100942.59
2023-03-21T01:33:43.093Z,100937.16
2023-03-21T01:36:15.905Z,100932.19
2023-03-21T01:38:43.970Z,100934.00
2023-03-21T01:41:36.645Z,100927.59
2023-03-21T01:44:19.063Z,100926.41
2023-03-21T01:47:07.370Z,100930.72
2023-03-21T01:49:49.695Z,100922.09
2023-03-21T01:52:37.669Z,100918.44
2023-03-21T01:55:12.779Z,100918.56
2023-03-21T01:58:06.840Z,100917.91
2023-03-21T02:00:55.143Z,100909.94
2023-03-21T02:03:38.358Z,100912.72
2023-03-21T02:06:35.329Z,100916.13
2023-03-21T02:09:33.591Z,100915.47
2023-03-21T02:12:01.446Z,100909.03
2023-03-21T02:14:33.939Z,100904.66
2023-03-21T02:17:15.065Z,100905.81
2023-03-21T02:20:17.901Z,100902.38
2023-03-21T02:22:56.956Z,100903.41
2023-03-21T02:26:01.806Z,100898.38
2023-03-21T02:28:41.798Z,100888.75
2023-03-21T02:31:35.802Z,100892.97
2023-03-21T02:34:17.806Z,100886.00
2023-03-21T02:37:05.626Z,100887.03
2023-03-21T02:39:45.185Z,100884.50
2023-03-21T02:42:37.958Z,100886.09
2023-03-21T02:45:19.324Z,100884.25
2023-03-21T02:48:00.621Z,100886.78
2023-03-21T02:50:37.518Z,100881.78
2023-03-21T02:53:08.420Z,100881.84
2023-03-21T02:55:37.472Z,100881.03
2023-03-21T02:58:13.236Z,100873.16
2023-03-21T03:00:47.417Z,100878.47
2023-03-21T03:03:33.332Z,100876.03
2023-03-21T03:06:03.952Z,100871.75
2023-03-21T03:09:02.309Z,100872.56
2023-03-21T03:11:43.081Z,100879.63
2023-03-21T03:14:31.583Z,100876.25
2023-03-21T03:17:28.538Z,100873.66
2023-03-21T03:20:32.567Z,100872.66
2023-03-21T03:23:25.292Z,100873.63
2023-03-21T03:26:08.975Z,100868.38
2023-03-21T03:28:45.828Z,100875.09
2023-03-21T03:31:25.798Z,100874.81
2023-03-21T03:34:02.164Z,100866.44
2023-03-21T03:36:36.857Z,100865.66
2023-03-21T03:39:11.198Z,100854.41
2023-03-21T03:42:12.573Z,100858.75
2023-03-21T03:44:37.853Z,100861.44
2023-03-21T03:47:06.203Z,100854.53
2023-03-21T03:49:41.922Z,100852.59
2023-03-21T03:52:17.352Z,100848.97
2023-03-21T03:54:49.482Z,100846.56
2023-03-21T03:57:16.688Z,100849.13
2023-03-21T03:59:45.732Z,100846.31
2023-03-21T04:02:21.830Z,100849.88
2023-03-21T04:04:52.951Z,100850.78
2023-03-21T04:07:22.255Z,100855.97
2023-03-21T04:09:51.903Z,100851.91
2023-03-21T04:12:20.475Z,100849.25
2023-03-21T04:15:10.859Z,100842.38
2023-03-21T04:17:41.833Z,100846.72
2023-03-21T04:20:13.059Z,100838.03
2023-03-21T04:22:43.704Z,100848.16
2023-03-21T04:25:10.909Z,100837.09
2023-03-21T04:27:37.835Z,100842.94
2023-03-21T04:30:27.863Z,100841.13
2023-03-21T04:33:04.979Z,100833.50
2023-03-21T04:35:37.061Z,100844.81
2023-03-21T04:38:05.504Z,100834.13
2023-03-21T04:40:32.173Z,100839.31
2023-03-21T04:43:01.177Z,100830.00
2023-03-21T04:45:28.433Z,100826.50
2023-03-21T04:47:55.887Z,100819.69
2023-03-21T04:50:22.520Z,100822.63
2023-03-21T04:52:49.129Z,100825.69
2023-03-21T04:55:15.937Z,100822.09
2023-03-21T04:57:42.643Z,100826.50
2023-03-21T05:00:18.628Z,100821.53
2023-03-21T05:02:46.125Z,100817.97
2023-03-21T05:05:13.534Z,100816.09
2023-03-21T05:07:41.255Z,100820.38
2023-03-21T05:10:12.116Z,100816.16
2023-03-21T05:12:41.376Z,100810.91
2023-03-21T05:15:09.081Z,100808.38
2023-03-21T05:17:36.627Z,100816.75
2023-03-21T05:20:04.713Z,100817.91
2023-03-21T05:22:40.807Z,100823.59
2023-03-21T05:25:12.209Z,100819.44
2023-03-21T05:28:03.493Z,100816.84
2023-03-21T05:30:31.349Z,100825.25
2023-03-21T05:33:00.524Z,100820.28
2023-03-21T05:35:27.578Z,100819.47
2023-03-21T05:37:57.010Z,100815.97
2023-03-21T05:40:25.128Z,100814.34
2023-03-21T05:42:55.524Z,100814.41
2023-03-21T05:45:23.267Z,100809.34
2023-03-21T05:47:51.521Z,100819.47
2023-03-21T05:50:20.759Z,100819.31
2023-03-21T05:53:00.878Z,100811.81
2023-03-21T05:55:28.031Z,100805.84
2023-03-21T05:57:56.554Z,100805.09
2023-03-21T06:00:27.956Z,100799.94
2023-03-21T06:03:18.585Z,100806.06
2023-03-21T06:05:58.773Z,100806.91
2023-03-21T06:08:32.736Z,100817.34
2023-03-21T06:11:00.147Z,100813.75
2023-03-21T06:13:26.864Z,100811.09
2023-03-21T06:15:53.679Z,100812.88
2023-03-21T06:18:23.846Z,100821.41
2023-03-21T06:20:58.926Z,100821.38
2023-03-21T06:23:25.770Z,100812.75
2023-03-21T06:25:53.324Z,100816.41
2023-03-21T06:28:20.472Z,100815.41
2023-03-21T06:30:47.017Z,100822.25
2023-03-21T06:33:18.667Z,100819.78
2023-03-21T06:35:50.353Z,100821.56
2023-03-21T06:38:17.531Z,100831.91
2023-03-21T06:40:46.935Z,100821.53
2023-03-21T06:43:14.297Z,100830.06
2023-03-21T06:45:40.991Z,100822.50
2023-03-21T06:48:10.380Z,100825.22
2023-03-21T06:50:44.605Z,100820.88
2023-03-21T06:53:11.161Z,100825.06
2023-03-21T06:55:57.649Z,100818.09
2023-03-21T06:58:24.665Z,100818.38
2023-03-21T07:00:51.341Z,100816.72
2023-03-21T07:03:19.185Z,100812.31
2023-03-21T07:05:46.773Z,100815.13
2023-03-21T07:08:15.287Z,100816.88
2023-03-21T07:10:45.420Z,100815.19
2023-03-21T07:13:13.446Z,100822.84
2023-03-21T07:16:02.766Z,100824.56
2023-03-21T07:18:30.878Z,100821.00
2023-03-21T07:20:57.477Z,100824.63
2023-03-21T07:23:25.873Z,100818.28
2023-03-21T07:25:54.126Z,100824.59
2023-03-21T07:28:21.053Z,100821.97
2023-03-21T07:30:57.466Z,100830.56
2023-03-21T07:33:26.236Z,100826.22
2023-03-21T07:35:57.858Z,100829.63
2023-03-21T07:38:24.755Z,100837.94
2023-03-21T07:40:51.755Z,100831.00
2023-03-21T07:45:57.189Z,100827.75
2023-03-21T07:48:23.908Z,100830.59
2023-03-21T07:50:51.024Z,100825.50
2023-03-21T07:53:17.832Z,100827.16
2023-03-21T07:55:44.463Z,100820.78
2023-03-21T07:58:11.095Z,100824.25
2023-03-21T08:00:37.663Z,100833.13
2023-03-21T08:03:04.368Z,100827.03
2023-03-21T08:05:35.620Z,100838.91
2023-03-21T08:08:02.601Z,100840.84
2023-03-21T08:10:29.250Z,100833.19
2023-03-21T08:12:55.947Z,100831.38
2023-03-21T08:15:22.964Z,100838.97
2023-03-21T08:17:49.735Z,100837.34
2023-03-21T08:20:21.695Z,100835.47
2023-03-21T08:22:49.507Z,100834.66
2023-03-21T08:25:18.373Z,100833.59
2023-03-21T08:27:46.601Z,100837.97
2023-03-21T08:30:16.664Z,100834.69
2023-03-21T08:32:43.667Z,100836.28
2023-03-21T08:35:13.805Z,100832.69
2023-03-21T08:37:42.425Z,100833.59
2023-03-21T08:40:13.328Z,100839.72
2023-03-21T08:42:41.688Z,100833.88
2023-03-21T08:45:09.236Z,100837.44
2023-03-21T08:47:35.972Z,100839.22
2023-03-21T08:50:06.636Z,100842.66
2023-03-21T08:52:33.805Z,100844.34
2023-03-21T08:55:02.127Z,100838.34
2023-03-21T08:57:29.188Z,100838.88
2023-03-21T08:59:55.766Z,100834.53
2023-03-21T09:02:22.519Z,100837.34
2023-03-21T09:04:49.193Z,100847.31
2023-03-21T09:07:18.003Z,100839.56
2023-03-21T09:09:47.614Z,100836.72
2023-03-21T09:12:17.333Z,100834.22
2023-03-21T09:14:43.943Z,100833.16
2023-03-21T09:17:10.593Z,100838.06
2023-03-21T09:19:38.805Z,100834.63
2023-03-21T09:22:05.993Z,100823.50
2023-03-21T09:24:32.894Z,100828.94
2023-03-21T09:26:59.501Z,100830.47
2023-03-21T09:29:26.904Z,100831.97
2023-03-21T09:31:53.857Z,100828.50
2023-03-21T09:34:20.858Z,100827.81
2023-03-21T09:36:48.505Z,100833.94
2023-03-21T09:39:16.192Z,100838.97
2023-03-21T09:42:00.969Z,100828.72
2023-03-21T09:44:37.959Z,100828.91
2023-03-21T09:47:34.705Z,100821.94
2023-03-21T09:50:14.477Z,100823.47
2023-03-21T09:53:07.273Z,100814.81
2023-03-21T09:55:38.536Z,100816.56
2023-03-21T09:58:20.461Z,100812.47
2023-03-21T10:00:53.584Z,100819.16
2023-03-21T10:03:24.487Z,100812.81
2023-03-21T10:05:52.862Z,100821.47
2023-03-21T10:08:27.443Z,100811.91
2023-03-21T10:10:58.951Z,100810.16
2023-03-21T10:13:32.188Z,100813.53
2023-03-21T10:16:02.121Z,100808.31
2023-03-21T10:18:31.733Z,100804.88
2023-03-21T10:20:58.306Z,100806.56
2023-03-21T10:23:29.781Z,100802.47
2023-03-21T10:26:01.071Z,100802.63
2023-03-21T10:28:49.919Z,100790.63
2023-03-21T10:31:28.409Z,100794.00
2023-03-21T10:33:57.811Z,100792.22
2023-03-21T10:36:27.252Z,100792.25
2023-03-21T10:38:57.245Z,100795.50
2023-03-21T10:41:23.877Z,100788.59
2023-03-21T10:44:14.470Z,100786.19
2023-03-21T10:46:56.037Z,100796.75
2023-03-21T10:49:23.344Z,100788.91
2023-03-21T10:51:52.850Z,100793.97
2023-03-21T10:54:22.287Z,100792.41
2023-03-21T10:57:00.960Z,100797.47
2023-03-21T10:59:35.784Z,100788.06
2023-03-21T11:02:04.328Z,100780.34
2023-03-21T11:04:31.219Z,100779.56
2023-03-21T11:07:07.435Z,100783.19
2023-03-21T11:09:53.498Z,100774.19
2023-03-21T11:12:39.683Z,100777.66
2023-03-21T11:15:42.862Z,100770.91
2023-03-21T11:18:26.009Z,100762.19
2023-03-21T11:20:58.541Z,100769.09
2023-03-21T11:23:28.808Z,100774.41
2023-03-21T11:25:56.013Z,100768.94
2023-03-21T11:28:28.541Z,100763.69
2023-03-21T11:30:58.257Z,100758.53
2023-03-21T11:33:36.565Z,100763.97
2023-03-21T11:36:07.906Z,100757.84
2023-03-21T11:38:39.839Z,100749.84
2023-03-21T11:41:07.495Z,100752.50
2023-03-21T11:43:39.289Z,100743.06
2023-03-21T11:46:13.967Z,100738.72
2023-03-21T11:48:43.901Z,100743.16
2023-03-21T11:51:35.285Z,100733.53
2023-03-21T11:54:14.225Z,100737.88
2023-03-21T11:56:47.582Z,100741.47
2023-03-21T11:59:23.211Z,100731.03
2023-03-21T12:02:14.632Z,100727.56
2023-03-21T12:04:47.037Z,100721.56
2023-03-21T12:07:26.421Z,100718.00
2023-03-21T12:10:09.100Z,100720.31
2023-03-21T12:12:58.716Z,100705.72
2023-03-21T12:16:13.916Z,100709.28
2023-03-21T12:19:12.318Z,100699.72
2023-03-21T12:22:21.318Z,100698.94
2023-03-21T12:24:54.893Z,100703.34
2023-03-21T12:27:43.182Z,100692.97
2023-03-21T12:30:09.748Z,100692.00
2023-03-21T12:33:08.711Z,100689.56
2023-03-21T12:35:38.482Z,100685.22
2023-03-21T12:38:39.448Z,100680.00
2023-03-21T12:41:35.293Z,100685.19
2023-03-21T12:44:10.350Z,100685.13
2023-03-21T12:46:52.764Z,100680.75
2023-03-21T12:49:42.995Z,100677.31
2023-03-21T12:52:16.505Z,100675.50
2023-03-21T12:54:51.146Z,100668.75
2023-03-21T12:57:32.680Z,100667.84
2023-03-21T13:00:10.724Z,100661.63
2023-03-21T13:02:59.946Z,100654.78
2023-03-21T13:05:32.880Z,100660.00
2023-03-21T13:08:22.729Z,100661.78
2023-03-21T13:10:49.502Z,100653.00
2023-03-21T13:13:27.030Z,100658.41
2023-03-21T13:16:27.808Z,100654.94
2023-03-21T13:19:20.815Z,100653.22
2023-03-21T13:22:09.092Z,100645.25
2023-03-21T13:24:47.145Z,100648.84
2023-03-21T13:27:29.496Z,100639.31
2023-03-21T13:30:17.827Z,100633.22
2023-03-21T13:32:48.407Z,100629.78
2023-03-21T13:35:19.779Z,100628.88
2023-03-21T13:37:53.385Z,100624.53
2023-03-21T13:40:23.489Z,100619.34
2023-03-21T13:42:57.021Z,100614.97
2023-03-21T13:45:28.806Z,100609.75
2023-03-21T13:47:58.544Z,100607.13
2023-03-21T13:50:29.498Z,100606.31
2023-03-21T13:53:02.022Z,100608.91
2023-03-21T13:55:30.841Z,100594.13
2023-03-21T13:57:57.428Z,100583.69
2023-03-21T14:00:30.880Z,100585.41
2023-03-21T14:03:09.793Z,100582.81
2023-03-21T14:05:37.599Z,100568.88
2023-03-21T14:08:21.590Z,100572.34
2023-03-21T14:10:59.689Z,100561.91
2023-03-21T14:13:27.722Z,100561.06
2023-03-21T14:16:00.911Z,100555.81
2023-03-21T14:18:52.316Z,100561.06
2023-03-21T14:21:25.494Z,100555.81
2023-03-21T14:24:06.457Z,100562.75
2023-03-21T14:26:36.186Z,100557.53
2023-03-21T14:29:22.853Z,100556.69
2023-03-21T14:31:51.644Z,100565.34
2023-03-21T14:34:18.552Z,100561.03
2023-03-21T14:36:56.901Z,100561.03
2023-03-21T14:39:28.868Z,100557.56
2023-03-21T14:42:02.158Z,100536.66
2023-03-21T14:44:53.479Z,100523.59
2023-03-21T14:47:21.242Z,100527.06
2023-03-21T14:49:49.359Z,100518.38
2023-03-21T14:52:26.390Z,100522.72
2023-03-21T14:54:55.260Z,100525.31
2023-03-21T14:57:25.680Z,100523.59
2023-03-21T14:59:54.827Z,100521.00
2023-03-21T15:02:26.767Z,100520.97
2023-03-21T15:04:57.150Z,100525.28
2023-03-21T15:07:33.507Z,100514.00
2023-03-21T15:10:21.709Z,100516.59
2023-03-21T15:13:12.642Z,100514.81
2023-03-21T15:15:40.530Z,100500.97
2023-03-21T15:18:08.676Z,100500.09
2023-03-21T15:20:38.074Z,100507.91
2023-03-21T15:23:15.630Z,100494.88
2023-03-21T15:25:43.145Z,100481.78
2023-03-21T15:28:13.858Z,100501.78
2023-03-21T15:30:49.115Z,100501.81
2023-03-21T15:33:16.468Z,100507.91
2023-03-21T15:35:46.130Z,100509.63
2023-03-21T15:38:39.900Z,100509.63
2023-03-21T15:41:21.600Z,100506.91
2023-03-21T15:44:09.106Z,100506.94
2023-03-21T15:46:50.459Z,100513.97
2023-03-21T15:49:32.881Z,100506.13
2023-03-21T15:52:15.716Z,100508.69
2023-03-21T15:54:44.088Z,100508.66
2023-03-21T15:57:24.052Z,100500.00
2023-03-21T15:59:55.848Z,100496.53
2023-03-21T16:02:25.217Z,100491.34
2023-03-21T16:05:23.892Z,100487.03
2023-03-21T16:07:50.616Z,100480.94
2023-03-21T16:10:29.531Z,100483.56
2023-03-21T16:12:56.299Z,100480.94
2023-03-21T16:15:25.742Z,100481.78
2023-03-21T16:18:01.925Z,100479.16
2023-03-21T16:20:34.170Z,100484.41
2023-03-21T16:23:01.561Z,100478.25
2023-03-21T16:25:30.015Z,100486.09
2023-03-21T16:27:57.078Z,100488.69
2023-03-21T16:30:24.035Z,100488.69
2023-03-21T16:32:51.449Z,100483.53
2023-03-21T16:35:18.670Z,100489.63
2023-03-21T16:37:47.999Z,100482.69
2023-03-21T16:40:31.559Z,100482.69
2023-03-21T16:42:58.180Z,100486.06
2023-03-21T16:45:25.051Z,100479.97
2023-03-21T16:47:51.991Z,100470.47
2023-03-21T16:50:25.212Z,100471.34
2023-03-21T16:52:52.241Z,100474.84
2023-03-21T16:55:19.817Z,100473.09
2023-03-21T16:57:47.032Z,100477.47
2023-03-21T17:00:20.530Z,100489.53
2023-03-21T17:02:47.986Z,100491.34
2023-03-21T17:05:15.029Z,100493.13
2023-03-21T17:07:44.022Z,100493.09
2023-03-21T17:10:15.339Z,100500.84
2023-03-21T17:12:41.915Z,100486.94
2023-03-21T17:15:09.511Z,100487.84
2023-03-21T17:17:36.767Z,100488.75
2023-03-21T17:20:15.057Z,100483.56
2023-03-21T17:22:42.204Z,100482.66
2023-03-21T17:25:09.074Z,100477.44
2023-03-21T17:27:39.392Z,100482.63
2023-03-21T17:30:27.561Z,100485.19
2023-03-21T17:32:54.769Z,100484.28
2023-03-21T17:35:23.444Z,100491.25
2023-03-21T17:37:51.410Z,100494.69
2023-03-21T17:40:24.802Z,100498.19
2023-03-21T17:42:51.971Z,100499.94
2023-03-21T17:45:20.002Z,100503.44
2023-03-21T17:47:47.314Z,100512.13
2023-03-21T17:50:18.856Z,100508.66
2023-03-21T17:52:46.056Z,100512.16
2023-03-21T17:55:14.719Z,100519.94
2023-03-21T17:57:41.313Z,100517.31
2023-03-21T18:00:14.215Z,100519.09
2023-03-21T18:02:41.623Z,100526.06
2023-03-21T18:05:09.537Z,100519.97
2023-03-21T18:10:28.187Z,100508.63
2023-03-21T18:12:58.319Z,100512.97
2023-03-21T18:15:30.110Z,100504.31
2023-03-21T18:17:57.666Z,100505.13
2023-03-21T18:20:45.519Z,100507.72
2023-03-21T18:23:14.291Z,100506.88
2023-03-21T18:25:41.754Z,100507.75
2023-03-21T18:28:11.972Z,100503.34
2023-03-21T18:30:56.841Z,100510.31
2023-03-21T18:33:27.266Z,100506.81
2023-03-21T18:35:59.064Z,100510.31
2023-03-21T18:38:27.735Z,100503.38
2023-03-21T18:40:55.376Z,100508.59
2023-03-21T18:46:09.196Z,100505.06
2023-03-21T18:48:36.068Z,100510.28
2023-03-21T18:51:03.689Z,100508.56
2023-03-21T18:53:30.252Z,100516.38
2023-03-21T18:55:57.492Z,100517.19
2023-03-21T18:58:25.113Z,100510.31
2023-03-21T19:00:53.539Z,100517.13
2023-03-21T19:03:34.113Z,100508.53
2023-03-21T19:06:03.915Z,100503.31
2023-03-21T19:08:31.191Z,100505.91
2023-03-21T19:11:00.139Z,100505.91
2023-03-21T19:13:30.170Z,100509.34
2023-03-21T19:15:57.117Z,100505.06
2023-03-21T19:18:41.676Z,100498.94
2023-03-21T19:21:10.448Z,100495.47
2023-03-21T19:24:15.154Z,100489.38
2023-03-21T19:26:27.582Z,100493.69
2023-03-21T19:28:54.704Z,100497.13
2023-03-21T19:31:21.974Z,100498.88
2023-03-21T19:33:48.721Z,100490.16
2023-03-21T19:36:21.858Z,100489.28
2023-03-21T19:38:49.224Z,100485.78
2023-03-21T19:41:16.488Z,100491.88
2023-03-21T19:43:53.779Z,100487.56
2023-03-21T19:46:24.846Z,100481.41
2023-03-21T19:48:56.307Z,100490.94
2023-03-21T19:51:28.601Z,100482.28
2023-03-21T19:53:56.539Z,100490.03
2023-03-21T19:56:26.440Z,100494.31
2023-03-21T19:58:55.210Z,100497.75
2023-03-21T20:01:22.361Z,100492.59
2023-03-21T20:03:49.149Z,100494.38
2023-03-21T20:06:16.585Z,100494.34
2023-03-21T20:09:27.626Z,100496.97
2023-03-21T20:11:29.770Z,100491.72
2023-03-21T20:13:56.563Z,100484.75
2023-03-21T20:16:23.241Z,100475.22
2023-03-21T20:18:50.028Z,100473.50
2023-03-21T20:21:18.503Z,100476.84
2023-03-21T20:23:50.834Z,100487.28
2023-03-21T20:26:18.374Z,100475.09
2023-03-21T20:29:01.095Z,100480.22
2023-03-21T20:31:37.683Z,100480.09
2023-03-21T20:34:04.456Z,100483.75
2023-03-21T20:36:41.112Z,100467.31
2023-03-21T20:39:09.454Z,100482.00
2023-03-21T20:41:36.102Z,100481.22
2023-03-21T20:46:49.930Z,100476.69
2023-03-21T20:49:16.690Z,100483.59
2023-03-21T20:54:30.269Z,100482.84
2023-03-21T20:56:57.216Z,100479.47
2023-03-21T20:59:27.761Z,100475.16
2023-03-21T21:01:57.192Z,100471.47
2023-03-21T21:04:44.346Z,100462.13
2023-03-21T21:07:15.973Z,100459.56
2023-03-21T21:09:45.324Z,100463.91
2023-03-21T21:12:13.655Z,100447.41
2023-03-21T21:14:41.254Z,100443.06
2023-03-21T21:17:24.554Z,100449.09
2023-03-21T21:19:55.328Z,100444.72
2023-03-21T21:22:21.926Z,100448.19
2023-03-21T21:24:48.539Z,100443.88
2023-03-21T21:27:15.082Z,100449.88
2023-03-21T21:29:43.395Z,100447.34
2023-03-21T21:32:11.157Z,100440.41
2023-03-21T21:34:38.052Z,100436.91
2023-03-21T21:37:05.072Z,100448.19
2023-03-21T21:39:35.133Z,100448.88
2023-03-21T21:42:02.242Z,100454.03
2023-03-21T21:44:28.791Z,100451.53
2023-03-21T21:46:55.443Z,100443.63
2023-03-21T21:49:22.052Z,100441.91
2023-03-21T21:51:48.676Z,100445.38
2023-03-21T21:54:18.232Z,100451.47
2023-03-21T21:56:48.570Z,100441.94
2023-03-21T21:59:21.930Z,100440.19
2023-03-21T22:01:51.201Z,100444.53
2023-03-21T22:04:27.558Z,100433.31
2023-03-21T22:06:57.233Z,100440.25
2023-03-21T22:09:23.930Z,100432.38
2023-03-21T22:11:50.510Z,100428.06
2023-03-21T22:14:17.195Z,100429.84
2023-03-21T22:16:43.997Z,100426.31
2023-03-21T22:19:10.711Z,100434.94
2023-03-21T22:21:37.324Z,100428.00
2023-03-21T22:24:04.151Z,100421.09
2023-03-21T22:26:30.694Z,100422.75
2023-03-21T22:28:58.374Z,100428.78
2023-03-21T22:31:26.333Z,100424.53
2023-03-21T22:33:53.066Z,100422.78
2023-03-21T22:36:20.118Z,100419.28
2023-03-21T22:38:47.811Z,100417.53
2023-03-21T22:41:14.441Z,100426.22
2023-03-21T22:43:43.036Z,100417.44
2023-03-21T22:46:09.635Z,100424.47
2023-03-21T22:48:36.246Z,100429.75
2023-03-21T22:51:02.924Z,100422.72
2023-03-21T22:53:29.783Z,100421.91
2023-03-21T22:55:56.592Z,100423.63
2023-03-21T22:58:23.594Z,100422.78
2023-03-21T23:00:50.328Z,100417.47
2023-03-21T23:03:17.053Z,100417.53
2023-03-21T23:05:44.945Z,100414.00
2023-03-21T23:08:12.874Z,100421.00
2023-03-21T23:10:41.317Z,100412.25
2023-03-21T23:13:08.103Z,100414.00
2023-03-21T23:15:34.708Z,100411.38
2023-03-21T23:18:01.385Z,100406.97
2023-03-21T23:20:28.095Z,100408.78
2023-03-21T23:22:54.878Z,100399.28
2023-03-21T23:25:21.787Z,100401.81
2023-03-21T23:27:48.382Z,100394.91
2023-03-21T23:30:16.564Z,100394.03
2023-03-21T23:32:43.168Z,100392.28
2023-03-21T23:35:11.357Z,100387.97
2023-03-21T23:37:38.178Z,100382.78
2023-03-21T23:40:08.983Z,100384.53
2023-03-21T23:42:36.892Z,100382.00
2023-03-21T23:45:04.053Z,100375.03
2023-03-21T23:47:31.041Z,100374.19
2023-03-21T23:49:57.912Z,100377.72
2023-03-21T23:52:24.483Z,100381.03
2023-03-21T23:54:51.161Z,100373.31
2023-03-21T23:57:17.990Z,100382.72
2023-03-21T23:59:46.850Z,100377.59
